createdAt,value
2019-04-06T00:00:11.787Z,19.29
2019-04-06T00:01:11.827Z,19.29
2019-04-06T00:02:11.438Z,19.26
2019-04-06T00:03:11.439Z,19.27
2019-04-06T00:04:11.489Z,19.27
2019-04-06T00:05:11.487Z,19.27
2019-04-06T00:06:11.468Z,19.26
2019-04-06T00:07:11.388Z,19.26
2019-04-06T00:08:11.510Z,19.23
2019-04-06T00:09:11.587Z,19.25
2019-04-06T00:10:11.616Z,19.26
2019-04-06T00:11:11.324Z,19.25
2019-04-06T00:12:11.507Z,19.23
2019-04-06T00:13:11.459Z,19.23
2019-04-06T00:14:11.578Z,19.22
2019-04-06T00:15:11.583Z,19.23
2019-04-06T00:16:11.570Z,19.22
2019-04-06T00:17:11.616Z,19.22
2019-04-06T00:18:11.633Z,19.22
2019-04-06T00:19:11.628Z,19.22
2019-04-06T00:20:11.697Z,19.22
2019-04-06T00:21:11.674Z,19.22
2019-04-06T00:22:11.553Z,19.22
2019-04-06T00:23:11.762Z,19.22
2019-04-06T00:24:11.385Z,19.2
2019-04-06T00:25:11.759Z,19.18
2019-04-06T00:26:11.401Z,19.2
2019-04-06T00:27:11.438Z,19.16
2019-04-06T00:28:11.639Z,19.19
2019-04-06T00:29:11.684Z,19.19
2019-04-06T00:30:11.475Z,19.18
2019-04-06T00:31:11.479Z,19.16
2019-04-06T00:32:11.532Z,19.13
2019-04-06T00:33:11.502Z,19.18
2019-04-06T00:34:11.623Z,19.16
2019-04-06T00:35:11.425Z,19.18
2019-04-06T00:36:11.753Z,19.16
2019-04-06T00:37:11.685Z,19.16
2019-04-06T00:38:11.514Z,19.15
2019-04-06T00:39:11.432Z,19.16
2019-04-06T00:40:11.568Z,19.13
2019-04-06T00:41:11.759Z,19.15
2019-04-06T00:42:11.633Z,19.13
2019-04-06T00:43:11.596Z,19.16
2019-04-06T00:44:12.428Z,19.13
2019-04-06T00:45:11.491Z,19.15
2019-04-06T00:46:11.499Z,19.12
2019-04-06T00:47:11.540Z,19.13
2019-04-06T00:48:11.528Z,19.12
2019-04-06T00:49:11.427Z,19.13
2019-04-06T00:50:11.472Z,19.13
2019-04-06T00:51:11.461Z,19.12
2019-04-06T00:52:11.484Z,19.12
2019-04-06T00:53:11.596Z,19.12
2019-04-06T00:54:11.486Z,19.12
2019-04-06T00:55:11.824Z,19.12
2019-04-06T00:56:11.615Z,19.11
2019-04-06T00:57:11.607Z,19.12
2019-04-06T00:58:11.526Z,19.11
2019-04-06T00:59:11.542Z,19.12
2019-04-06T01:00:11.553Z,19.09
2019-04-06T01:01:11.463Z,19.11
2019-04-06T01:02:11.725Z,19.08
2019-04-06T01:03:11.326Z,19.09
2019-04-06T01:04:11.629Z,19.08
2019-04-06T01:05:11.631Z,19.08
2019-04-06T01:06:12.144Z,19.09
2019-04-06T01:07:11.396Z,19.08
2019-04-06T01:08:11.346Z,19.06
2019-04-06T01:09:11.404Z,19.06
2019-04-06T01:10:11.564Z,19.06
2019-04-06T01:11:11.440Z,19.05
2019-04-06T01:12:11.551Z,19.05
2019-04-06T01:13:11.439Z,19.06
2019-04-06T01:14:11.464Z,19.03
2019-04-06T01:15:11.433Z,19.06
2019-04-06T01:16:11.469Z,19.03
2019-04-06T01:17:11.605Z,19.08
2019-04-06T01:18:11.484Z,19.05
2019-04-06T01:19:11.257Z,19.05
2019-04-06T01:20:11.489Z,19.05
2019-04-06T01:21:11.530Z,19.06
2019-04-06T01:22:11.817Z,19.02
2019-04-06T01:23:11.398Z,19.03
2019-04-06T01:24:11.642Z,19.02
2019-04-06T01:25:11.603Z,19.02
2019-04-06T01:26:11.580Z,19.02
2019-04-06T01:27:11.548Z,19.01
2019-04-06T01:28:11.464Z,19.02
2019-04-06T01:29:11.546Z,19.01
2019-04-06T01:30:11.409Z,19.01
2019-04-06T01:31:11.354Z,18.98
2019-04-06T01:32:11.429Z,18.97
2019-04-06T01:33:11.474Z,19.01
2019-04-06T01:34:11.561Z,18.99
2019-04-06T01:35:11.492Z,18.99
2019-04-06T01:36:11.389Z,18.98
2019-04-06T01:37:11.495Z,18.98
2019-04-06T01:38:11.557Z,18.98
2019-04-06T01:39:11.411Z,18.97
2019-04-06T01:40:11.425Z,18.97
2019-04-06T01:41:11.637Z,18.97
2019-04-06T01:42:11.541Z,18.99
2019-04-06T01:43:11.526Z,18.95
2019-04-06T01:44:11.572Z,18.97
2019-04-06T01:45:11.591Z,18.95
2019-04-06T01:46:11.573Z,18.98
2019-04-06T01:47:11.711Z,18.97
2019-04-06T01:48:11.765Z,18.98
2019-04-06T01:49:11.957Z,18.95
2019-04-06T01:50:11.348Z,18.97
2019-04-06T01:51:11.500Z,18.94
2019-04-06T01:52:11.560Z,18.95
2019-04-06T01:53:11.409Z,18.97
2019-04-06T01:54:11.426Z,18.94
2019-04-06T01:55:11.411Z,18.92
2019-04-06T01:56:19.460Z,18.94
2019-04-06T01:57:11.449Z,18.94
2019-04-06T01:58:11.449Z,18.92
2019-04-06T01:59:11.581Z,18.94
2019-04-06T02:00:11.454Z,18.94
2019-04-06T02:01:11.673Z,18.94
2019-04-06T02:02:11.560Z,18.92
2019-04-06T02:03:11.384Z,18.92
2019-04-06T02:04:11.500Z,18.91
2019-04-06T02:05:11.554Z,18.92
2019-04-06T02:06:11.550Z,18.92
2019-04-06T02:07:11.560Z,18.91
2019-04-06T02:08:11.357Z,18.91
2019-04-06T02:09:11.510Z,18.91
2019-04-06T02:10:11.499Z,18.88
2019-04-06T02:11:11.442Z,18.92
2019-04-06T02:12:11.503Z,18.88
2019-04-06T02:13:11.477Z,18.9
2019-04-06T02:14:11.449Z,18.9
2019-04-06T02:15:11.447Z,18.9
2019-04-06T02:16:11.496Z,18.9
2019-04-06T02:17:11.445Z,18.88
2019-04-06T02:18:11.639Z,18.9
2019-04-06T02:19:11.474Z,18.9
2019-04-06T02:20:11.710Z,18.88
2019-04-06T02:21:11.531Z,18.88
2019-04-06T02:22:11.503Z,18.88
2019-04-06T02:23:11.307Z,18.87
2019-04-06T02:24:11.513Z,18.87
2019-04-06T02:25:11.514Z,18.85
2019-04-06T02:26:11.583Z,18.85
2019-04-06T02:27:11.360Z,18.87
2019-04-06T02:28:11.764Z,18.85
2019-04-06T02:29:11.625Z,18.84
2019-04-06T02:30:11.617Z,18.85
2019-04-06T02:31:11.347Z,18.87
2019-04-06T02:32:11.348Z,18.85
2019-04-06T02:33:15.239Z,18.85
2019-04-06T02:34:11.709Z,18.87
2019-04-06T02:35:11.383Z,18.84
2019-04-06T02:36:11.589Z,18.84
2019-04-06T02:37:11.631Z,18.85
2019-04-06T02:38:11.384Z,18.84
2019-04-06T02:39:11.454Z,18.83
2019-04-06T02:40:11.457Z,18.85
2019-04-06T02:41:11.589Z,18.84
2019-04-06T02:42:11.461Z,18.81
2019-04-06T02:43:11.691Z,18.81
2019-04-06T02:44:11.509Z,18.83
2019-04-06T02:45:11.685Z,18.84
2019-04-06T02:46:11.897Z,18.8
2019-04-06T02:47:11.532Z,18.83
2019-04-06T02:48:11.806Z,18.81
2019-04-06T02:49:11.585Z,18.83
2019-04-06T02:50:11.591Z,18.81
2019-04-06T02:51:11.480Z,18.78
2019-04-06T02:52:11.744Z,18.8
2019-04-06T02:53:11.379Z,18.8
2019-04-06T02:54:12.095Z,18.78
2019-04-06T02:55:11.367Z,18.78
2019-04-06T02:56:11.818Z,18.8
2019-04-06T02:57:11.671Z,18.8
2019-04-06T02:58:11.493Z,18.78
2019-04-06T02:59:11.502Z,18.8
2019-04-06T03:00:11.442Z,18.78
2019-04-06T03:01:11.463Z,18.78
2019-04-06T03:02:11.721Z,18.77
2019-04-06T03:03:11.415Z,18.77
2019-04-06T03:04:11.496Z,18.77
2019-04-06T03:05:11.584Z,18.75
2019-04-06T03:06:11.845Z,18.75
2019-04-06T03:07:11.278Z,18.75
2019-04-06T03:08:11.686Z,18.75
2019-04-06T03:09:12.569Z,18.77
2019-04-06T03:10:11.512Z,18.74
2019-04-06T03:11:11.585Z,18.74
2019-04-06T03:12:12.039Z,18.75
2019-04-06T03:13:11.637Z,18.74
2019-04-06T03:14:11.674Z,18.75
2019-04-06T03:15:11.493Z,18.77
2019-04-06T03:16:11.404Z,18.73
2019-04-06T03:17:11.565Z,18.71
2019-04-06T03:18:11.333Z,18.75
2019-04-06T03:19:11.433Z,18.74
2019-04-06T03:20:11.495Z,18.73
2019-04-06T03:21:11.398Z,18.71
2019-04-06T03:22:11.451Z,18.73
2019-04-06T03:23:11.362Z,18.74
2019-04-06T03:24:11.775Z,18.73
2019-04-06T03:25:11.534Z,18.73
2019-04-06T03:26:11.495Z,18.7
2019-04-06T03:27:11.517Z,18.73
2019-04-06T03:28:12.062Z,18.73
2019-04-06T03:29:11.518Z,18.68
2019-04-06T03:30:11.628Z,18.71
2019-04-06T03:31:11.636Z,18.71
2019-04-06T03:32:11.635Z,18.68
2019-04-06T03:33:12.115Z,18.71
2019-04-06T03:34:13.212Z,18.68
2019-04-06T03:35:12.154Z,18.68
2019-04-06T03:36:11.531Z,18.68
2019-04-06T03:37:11.662Z,18.7
2019-04-06T03:38:11.778Z,18.68
2019-04-06T03:39:18.322Z,18.7
2019-04-06T03:40:11.469Z,18.7
2019-04-06T03:41:11.405Z,18.7
2019-04-06T03:42:12.012Z,18.73
2019-04-06T03:43:11.469Z,18.73
2019-04-06T03:44:11.524Z,18.71
2019-04-06T03:45:11.692Z,18.73
2019-04-06T03:46:11.529Z,18.71
2019-04-06T03:47:11.633Z,18.71
2019-04-06T03:48:11.651Z,18.73
2019-04-06T03:49:11.731Z,18.75
2019-04-06T03:50:11.533Z,18.77
2019-04-06T03:51:11.521Z,18.75
2019-04-06T03:52:11.762Z,18.75
2019-04-06T03:53:11.937Z,18.77
2019-04-06T03:54:11.304Z,18.77
2019-04-06T03:55:11.863Z,18.8
2019-04-06T03:56:11.558Z,18.78
2019-04-06T03:57:17.755Z,18.81
2019-04-06T03:58:11.343Z,18.84
2019-04-06T03:59:12.186Z,18.84
2019-04-06T04:00:11.958Z,18.85
2019-04-06T04:01:11.298Z,18.9
2019-04-06T04:02:11.430Z,18.9
2019-04-06T04:03:11.750Z,18.92
2019-04-06T04:04:11.427Z,18.97
2019-04-06T04:05:11.450Z,18.94
2019-04-06T04:06:11.604Z,18.97
2019-04-06T04:07:11.445Z,19.01
2019-04-06T04:08:11.454Z,19.01
2019-04-06T04:09:11.641Z,18.99
2019-04-06T04:10:11.575Z,19.03
2019-04-06T04:11:11.967Z,19.06
2019-04-06T04:12:11.668Z,19.09
2019-04-06T04:13:11.383Z,19.09
2019-04-06T04:14:11.537Z,19.11
2019-04-06T04:15:11.587Z,19.13
2019-04-06T04:16:11.940Z,19.15
2019-04-06T04:17:11.556Z,19.13
2019-04-06T04:18:11.724Z,19.19
2019-04-06T04:19:11.341Z,19.19
2019-04-06T04:20:11.606Z,19.22
2019-04-06T04:21:11.962Z,19.2
2019-04-06T04:22:11.665Z,19.23
2019-04-06T04:23:11.464Z,19.23
2019-04-06T04:24:11.855Z,19.27
2019-04-06T04:25:11.509Z,19.29
2019-04-06T04:26:11.360Z,19.32
2019-04-06T04:27:11.477Z,19.32
2019-04-06T04:28:12.068Z,19.32
2019-04-06T04:29:11.610Z,19.33
2019-04-06T04:30:11.304Z,19.35
2019-04-06T04:31:11.502Z,19.35
2019-04-06T04:32:11.495Z,19.37
2019-04-06T04:33:11.453Z,19.39
2019-04-06T04:34:11.489Z,19.39
2019-04-06T04:35:11.878Z,19.43
2019-04-06T04:36:11.682Z,19.45
2019-04-06T04:37:11.563Z,19.43
2019-04-06T04:38:11.676Z,19.46
2019-04-06T04:39:11.561Z,19.47
2019-04-06T04:40:11.559Z,19.46
2019-04-06T04:41:11.602Z,19.5
2019-04-06T04:42:11.514Z,19.53
2019-04-06T04:43:11.372Z,19.5
2019-04-06T04:44:11.344Z,19.54
2019-04-06T04:45:11.586Z,19.57
2019-04-06T04:46:11.330Z,19.57
2019-04-06T04:47:11.637Z,19.6
2019-04-06T04:48:11.368Z,19.58
2019-04-06T04:49:11.344Z,19.61
2019-04-06T04:50:11.674Z,19.63
2019-04-06T04:51:11.400Z,19.63
2019-04-06T04:52:11.398Z,19.64
2019-04-06T04:53:11.455Z,19.67
2019-04-06T04:54:11.690Z,19.68
2019-04-06T04:55:11.558Z,19.67
2019-04-06T04:56:11.499Z,19.68
2019-04-06T04:57:11.747Z,19.71
2019-04-06T04:58:11.445Z,19.74
2019-04-06T04:59:11.499Z,19.74
2019-04-06T05:00:11.531Z,19.74
2019-04-06T05:01:11.650Z,19.75
2019-04-06T05:02:11.393Z,19.75
2019-04-06T05:03:11.609Z,19.74
2019-04-06T05:04:11.503Z,19.78
2019-04-06T05:05:11.461Z,19.78
2019-04-06T05:06:11.405Z,19.78
2019-04-06T05:07:11.473Z,19.81
2019-04-06T05:08:11.587Z,19.81
2019-04-06T05:09:11.536Z,19.82
2019-04-06T05:10:11.366Z,19.84
2019-04-06T05:11:11.442Z,19.84
2019-04-06T05:12:11.451Z,19.84
2019-04-06T05:13:11.691Z,19.86
2019-04-06T05:14:11.517Z,19.89
2019-04-06T05:15:11.459Z,19.88
2019-04-06T05:16:11.471Z,19.91
2019-04-06T05:17:11.487Z,19.89
2019-04-06T05:18:11.505Z,19.92
2019-04-06T05:19:11.539Z,19.93
2019-04-06T05:20:11.499Z,19.92
2019-04-06T05:21:11.812Z,19.92
2019-04-06T05:22:11.310Z,19.93
2019-04-06T05:23:11.546Z,19.96
2019-04-06T05:24:11.685Z,19.95
2019-04-06T05:25:11.398Z,19.95
2019-04-06T05:26:11.407Z,19.96
2019-04-06T05:27:11.740Z,19.98
2019-04-06T05:28:11.337Z,20.01
2019-04-06T05:29:11.427Z,20.01
2019-04-06T05:30:11.231Z,20.02
2019-04-06T05:31:11.311Z,20.04
2019-04-06T05:32:11.688Z,20.04
2019-04-06T05:33:11.555Z,20.04
2019-04-06T05:34:11.229Z,20.05
2019-04-06T05:35:11.422Z,20.07
2019-04-06T05:36:11.401Z,20.05
2019-04-06T05:37:11.435Z,20.08
2019-04-06T05:38:11.185Z,20.08
2019-04-06T05:39:11.424Z,20.11
2019-04-06T05:40:11.442Z,20.09
2019-04-06T05:41:11.502Z,20.12
2019-04-06T05:42:11.271Z,20.12
2019-04-06T05:43:11.696Z,20.15
2019-04-06T05:44:11.502Z,20.13
2019-04-06T05:45:11.336Z,20.13
2019-04-06T05:46:11.549Z,20.15
2019-04-06T05:47:11.754Z,20.16
2019-04-06T05:48:11.435Z,20.18
2019-04-06T05:49:11.359Z,20.15
2019-04-06T05:50:11.318Z,20.18
2019-04-06T05:51:11.585Z,20.19
2019-04-06T05:52:11.902Z,20.2
2019-04-06T05:53:11.537Z,20.2
2019-04-06T05:54:11.348Z,20.22
2019-04-06T05:55:11.432Z,20.22
2019-04-06T05:56:11.632Z,20.22
2019-04-06T05:57:11.790Z,20.22
2019-04-06T05:58:11.336Z,20.25
2019-04-06T05:59:11.438Z,20.23
2019-04-06T06:00:11.854Z,20.27
2019-04-06T06:01:11.660Z,20.26
2019-04-06T06:02:11.676Z,20.25
2019-04-06T06:03:11.994Z,20.27
2019-04-06T06:04:11.957Z,20.29
2019-04-06T06:05:11.704Z,20.29
2019-04-06T06:06:13.946Z,20.32
2019-04-06T06:07:11.499Z,20.3
2019-04-06T06:08:11.497Z,20.29
2019-04-06T06:09:11.277Z,20.3
2019-04-06T06:10:11.316Z,20.3
2019-04-06T06:11:11.401Z,20.3
2019-04-06T06:12:11.571Z,20.33
2019-04-06T06:13:11.416Z,20.32
2019-04-06T06:14:11.461Z,20.33
2019-04-06T06:15:11.374Z,20.32
2019-04-06T06:16:12.827Z,20.35
2019-04-06T06:17:11.907Z,20.35
2019-04-06T06:18:11.369Z,20.35
2019-04-06T06:19:12.491Z,20.36
2019-04-06T06:20:11.665Z,20.36
2019-04-06T06:21:11.463Z,20.33
2019-04-06T06:22:11.711Z,20.37
2019-04-06T06:23:11.694Z,20.35
2019-04-06T06:24:11.378Z,20.37
2019-04-06T06:25:11.369Z,20.39
2019-04-06T06:26:11.494Z,20.39
2019-04-06T06:27:11.459Z,20.4
2019-04-06T06:28:15.854Z,20.42
2019-04-06T06:29:11.647Z,20.4
2019-04-06T06:30:11.474Z,20.4
2019-04-06T06:31:11.350Z,20.43
2019-04-06T06:32:11.692Z,20.42
2019-04-06T06:33:11.383Z,20.42
2019-04-06T06:34:11.802Z,20.42
2019-04-06T06:35:11.492Z,20.42
2019-04-06T06:36:11.553Z,20.4
2019-04-06T06:37:11.728Z,20.44
2019-04-06T06:38:11.601Z,20.43
2019-04-06T06:39:11.541Z,20.43
2019-04-06T06:40:11.473Z,20.44
2019-04-06T06:41:11.569Z,20.43
2019-04-06T06:42:11.212Z,20.43
2019-04-06T06:43:11.571Z,20.44
2019-04-06T06:44:11.328Z,20.46
2019-04-06T06:45:11.307Z,20.48
2019-04-06T06:46:11.272Z,20.47
2019-04-06T06:47:11.283Z,20.44
2019-04-06T06:48:11.417Z,20.47
2019-04-06T06:49:11.436Z,20.47
2019-04-06T06:50:11.330Z,20.48
2019-04-06T06:51:11.657Z,20.48
2019-04-06T06:52:11.705Z,20.51
2019-04-06T06:53:11.415Z,20.5
2019-04-06T06:54:11.425Z,20.51
2019-04-06T06:55:11.826Z,20.5
2019-04-06T06:56:11.256Z,20.51
2019-04-06T06:57:11.375Z,20.5
2019-04-06T06:58:11.397Z,20.53
2019-04-06T06:59:11.472Z,20.54
2019-04-06T07:00:11.477Z,20.51
2019-04-06T07:01:11.759Z,20.54
2019-04-06T07:02:11.582Z,20.53
2019-04-06T07:03:11.647Z,20.55
2019-04-06T07:04:11.381Z,20.54
2019-04-06T07:05:11.330Z,20.57
2019-04-06T07:06:11.299Z,20.54
2019-04-06T07:07:11.357Z,20.57
2019-04-06T07:08:11.301Z,20.57
2019-04-06T07:09:11.326Z,20.59
2019-04-06T07:10:11.351Z,20.59
2019-04-06T07:11:11.394Z,20.6
2019-04-06T07:12:11.378Z,20.57
2019-04-06T07:13:12.016Z,20.61
2019-04-06T07:14:11.629Z,20.6
2019-04-06T07:15:11.425Z,20.63
2019-04-06T07:16:11.466Z,20.63
2019-04-06T07:17:11.440Z,20.63
2019-04-06T07:18:11.473Z,20.64
2019-04-06T07:19:11.444Z,20.63
2019-04-06T07:20:11.683Z,20.64
2019-04-06T07:21:11.400Z,20.66
2019-04-06T07:22:11.161Z,20.66
2019-04-06T07:23:11.325Z,20.63
2019-04-06T07:24:11.134Z,20.64
2019-04-06T07:25:11.182Z,20.66
2019-04-06T07:26:11.275Z,20.67
2019-04-06T07:27:11.229Z,20.66
2019-04-06T07:28:11.493Z,20.67
2019-04-06T07:29:11.370Z,20.68
2019-04-06T07:30:11.302Z,20.68
2019-04-06T07:31:11.358Z,20.71
2019-04-06T07:32:11.614Z,20.7
2019-04-06T07:33:11.404Z,20.74
2019-04-06T07:34:11.302Z,20.7
2019-04-06T07:35:11.280Z,20.71
2019-04-06T07:36:11.526Z,20.71
2019-04-06T07:37:11.299Z,20.7
2019-04-06T07:38:11.313Z,20.7
2019-04-06T07:39:11.496Z,20.71
2019-04-06T07:40:11.472Z,20.71
2019-04-06T07:41:11.359Z,20.71
2019-04-06T07:42:11.130Z,20.71
2019-04-06T07:43:11.113Z,20.71
2019-04-06T07:44:11.186Z,20.71
2019-04-06T07:45:11.192Z,20.74
2019-04-06T07:46:11.237Z,20.67
2019-04-06T07:47:11.232Z,20.63
2019-04-06T07:48:11.355Z,20.61
2019-04-06T07:49:11.344Z,20.59
2019-04-06T07:50:11.247Z,20.59
2019-04-06T07:51:11.284Z,20.6
2019-04-06T07:52:11.584Z,20.61
2019-04-06T07:53:11.308Z,20.61
2019-04-06T07:54:11.262Z,20.63
2019-04-06T07:55:11.392Z,20.64
2019-04-06T07:56:11.569Z,20.64
2019-04-06T07:57:11.325Z,20.66
2019-04-06T07:58:11.784Z,20.67
2019-04-06T07:59:11.788Z,20.66
2019-04-06T08:00:11.432Z,20.67
2019-04-06T08:01:11.431Z,20.7
2019-04-06T08:02:11.146Z,20.7
2019-04-06T08:03:11.089Z,20.7
2019-04-06T08:04:11.604Z,20.71
2019-04-06T08:05:11.427Z,20.7
2019-04-06T08:06:11.717Z,20.68
2019-04-06T08:07:11.255Z,20.71
2019-04-06T08:08:11.550Z,20.71
2019-04-06T08:09:11.230Z,20.71
2019-04-06T08:10:11.117Z,20.71
2019-04-06T08:11:11.197Z,20.72
2019-04-06T08:12:11.376Z,20.72
2019-04-06T08:13:11.398Z,20.74
2019-04-06T08:14:11.493Z,20.77
2019-04-06T08:15:11.263Z,20.75
2019-04-06T08:16:11.254Z,20.77
2019-04-06T08:17:11.360Z,20.78
2019-04-06T08:18:11.517Z,20.75
2019-04-06T08:19:11.377Z,20.77
2019-04-06T08:20:11.846Z,20.77
2019-04-06T08:21:11.639Z,20.78
2019-04-06T08:22:18.713Z,20.78
2019-04-06T08:23:11.142Z,20.78
2019-04-06T08:24:11.172Z,20.8
2019-04-06T08:25:11.672Z,20.8
2019-04-06T08:26:11.178Z,20.8
2019-04-06T08:27:11.272Z,20.8
2019-04-06T08:28:11.165Z,20.8
2019-04-06T08:29:11.552Z,20.81
2019-04-06T08:30:11.402Z,20.82
2019-04-06T08:31:11.284Z,20.8
2019-04-06T08:32:11.319Z,20.82
2019-04-06T08:33:11.214Z,20.81
2019-04-06T08:34:14.377Z,20.8
2019-04-06T08:35:11.340Z,20.81
2019-04-06T08:36:11.560Z,20.82
2019-04-06T08:37:11.329Z,20.8
2019-04-06T08:38:11.764Z,20.78
2019-04-06T08:39:11.498Z,20.8
2019-04-06T08:40:11.322Z,20.78
2019-04-06T08:41:11.425Z,20.81
2019-04-06T08:42:11.363Z,20.82
2019-04-06T08:43:11.183Z,20.8
2019-04-06T08:44:11.572Z,20.8
2019-04-06T08:45:14.681Z,20.82
2019-04-06T08:46:11.173Z,20.8
2019-04-06T08:47:11.542Z,20.8
2019-04-06T08:48:11.244Z,20.8
2019-04-06T08:49:11.120Z,20.78
2019-04-06T08:50:11.660Z,20.77
2019-04-06T08:51:11.464Z,20.8
2019-04-06T08:52:12.569Z,20.8
2019-04-06T08:53:11.097Z,20.8
2019-04-06T08:54:11.251Z,20.81
2019-04-06T08:55:11.538Z,20.8
2019-04-06T08:56:11.316Z,20.77
2019-04-06T08:57:12.304Z,20.77
2019-04-06T08:58:11.608Z,20.77
2019-04-06T08:59:13.980Z,20.78
2019-04-06T09:00:12.269Z,20.78
2019-04-06T09:01:11.518Z,20.77
2019-04-06T09:02:11.218Z,20.77
2019-04-06T09:03:11.125Z,20.78
2019-04-06T09:04:11.386Z,20.77
2019-04-06T09:05:11.252Z,20.75
2019-04-06T09:06:11.134Z,20.77
2019-04-06T09:07:11.565Z,20.77
2019-04-06T09:08:11.471Z,20.75
2019-04-06T09:09:11.286Z,20.75
2019-04-06T09:10:11.121Z,20.75
2019-04-06T09:11:11.574Z,20.74
2019-04-06T09:12:11.331Z,20.72
2019-04-06T09:13:11.216Z,20.72
2019-04-06T09:14:11.030Z,20.74
2019-04-06T09:15:11.497Z,20.68
2019-04-06T09:16:11.981Z,20.7
2019-04-06T09:17:11.290Z,20.7
2019-04-06T09:18:11.544Z,20.68
2019-04-06T09:19:11.298Z,20.67
2019-04-06T09:20:11.483Z,20.66
2019-04-06T09:21:11.683Z,20.64
2019-04-06T09:22:11.692Z,20.63
2019-04-06T09:23:11.130Z,20.64
2019-04-06T09:24:11.121Z,20.63
2019-04-06T09:25:11.147Z,20.64
2019-04-06T09:26:11.505Z,20.61
2019-04-06T09:27:11.161Z,20.6
2019-04-06T09:28:11.303Z,20.59
2019-04-06T09:29:25.216Z,20.55
2019-04-06T09:30:11.613Z,20.57
2019-04-06T09:31:11.190Z,20.55
2019-04-06T09:32:11.250Z,20.55
2019-04-06T09:33:11.244Z,20.57
2019-04-06T09:34:11.112Z,20.55
2019-04-06T09:35:11.521Z,20.54
2019-04-06T09:36:11.284Z,20.53
2019-04-06T09:37:11.470Z,20.54
2019-04-06T09:38:11.248Z,20.53
2019-04-06T09:39:11.714Z,20.51
2019-04-06T09:40:11.494Z,20.5
2019-04-06T09:41:11.103Z,20.48
2019-04-06T09:42:11.298Z,20.5
2019-04-06T09:43:11.092Z,20.46
2019-04-06T09:44:11.662Z,20.48
2019-04-06T09:45:11.677Z,20.48
2019-04-06T09:46:11.230Z,20.47
2019-04-06T09:47:11.551Z,20.47
2019-04-06T09:48:11.217Z,20.46
2019-04-06T09:49:11.379Z,20.46
2019-04-06T09:50:11.164Z,20.44
2019-04-06T09:51:11.235Z,20.44
2019-04-06T09:52:11.374Z,20.46
2019-04-06T09:53:11.284Z,20.43
2019-04-06T09:54:11.305Z,20.43
2019-04-06T09:55:11.261Z,20.44
2019-04-06T09:56:11.470Z,20.46
2019-04-06T09:57:11.330Z,20.46
2019-04-06T09:58:11.305Z,20.43
2019-04-06T09:59:11.358Z,20.46
2019-04-06T10:00:11.136Z,20.44
2019-04-06T10:01:11.157Z,20.44
2019-04-06T10:02:11.446Z,20.44
2019-04-06T10:03:11.250Z,20.46
2019-04-06T10:04:11.141Z,20.46
2019-04-06T10:05:12.114Z,20.46
2019-04-06T10:06:11.173Z,20.46
2019-04-06T10:07:11.225Z,20.43
2019-04-06T10:08:11.505Z,20.46
2019-04-06T10:09:11.224Z,20.46
2019-04-06T10:10:11.053Z,20.46
2019-04-06T10:11:11.480Z,20.43
2019-04-06T10:12:11.423Z,20.44
2019-04-06T10:13:11.251Z,20.46
2019-04-06T10:14:11.323Z,20.44
2019-04-06T10:15:11.847Z,20.4
2019-04-06T10:16:11.662Z,20.44
2019-04-06T10:17:11.556Z,20.42
2019-04-06T10:18:11.649Z,20.4
2019-04-06T10:19:11.171Z,20.4
2019-04-06T10:20:11.065Z,20.39
2019-04-06T10:21:11.114Z,20.4
2019-04-06T10:22:11.116Z,20.37
2019-04-06T10:23:11.167Z,20.37
2019-04-06T10:24:11.179Z,20.37
2019-04-06T10:25:11.941Z,20.37
2019-04-06T10:26:11.264Z,20.36
2019-04-06T10:27:11.500Z,20.36
2019-04-06T10:28:11.551Z,20.33
2019-04-06T10:29:11.364Z,20.35
2019-04-06T10:30:11.342Z,20.35
2019-04-06T10:31:11.536Z,20.33
2019-04-06T10:32:11.570Z,20.33
2019-04-06T10:33:11.373Z,20.3
2019-04-06T10:34:11.024Z,20.32
2019-04-06T10:35:11.415Z,20.3
2019-04-06T10:36:11.289Z,20.29
2019-04-06T10:37:11.305Z,20.27
2019-04-06T10:38:11.266Z,20.27
2019-04-06T10:39:11.219Z,20.23
2019-04-06T10:40:11.065Z,20.25
2019-04-06T10:41:11.529Z,20.26
2019-04-06T10:42:11.512Z,20.25
2019-04-06T10:43:11.111Z,20.23
2019-04-06T10:44:11.438Z,20.22
2019-04-06T10:45:11.155Z,20.22
2019-04-06T10:46:11.175Z,20.19
2019-04-06T10:47:11.573Z,20.22
2019-04-06T10:48:11.264Z,20.19
2019-04-06T10:49:11.555Z,20.19
2019-04-06T10:50:11.173Z,20.18
2019-04-06T10:51:11.203Z,20.16
2019-04-06T10:52:11.294Z,20.16
2019-04-06T10:53:11.257Z,20.13
2019-04-06T10:54:11.213Z,20.13
2019-04-06T10:55:11.877Z,20.13
2019-04-06T10:56:11.835Z,20.13
2019-04-06T10:57:11.434Z,20.15
2019-04-06T10:58:11.047Z,20.12
2019-04-06T10:59:11.139Z,20.13
2019-04-06T11:00:11.204Z,20.15
2019-04-06T11:01:11.359Z,20.11
2019-04-06T11:02:11.153Z,20.11
2019-04-06T11:03:11.185Z,20.12
2019-04-06T11:04:11.311Z,20.15
2019-04-06T11:05:11.192Z,20.12
2019-04-06T11:06:11.192Z,20.12
2019-04-06T11:07:11.307Z,20.12
2019-04-06T11:08:11.259Z,20.08
2019-04-06T11:09:11.226Z,20.12
2019-04-06T11:10:11.473Z,20.13
2019-04-06T11:11:11.386Z,20.12
2019-04-06T11:12:11.444Z,20.11
2019-04-06T11:13:11.304Z,20.11
2019-04-06T11:14:11.178Z,20.11
2019-04-06T11:15:11.054Z,20.09
2019-04-06T11:16:10.979Z,20.09
2019-04-06T11:17:11.093Z,20.11
2019-04-06T11:18:11.110Z,20.09
2019-04-06T11:19:11.388Z,20.09
2019-04-06T11:20:11.055Z,20.09
2019-04-06T11:21:11.273Z,20.08
2019-04-06T11:22:11.128Z,20.08
2019-04-06T11:23:11.193Z,20.07
2019-04-06T11:24:11.186Z,20.07
2019-04-06T11:25:11.159Z,20.07
2019-04-06T11:26:11.188Z,20.11
2019-04-06T11:27:11.208Z,20.07
2019-04-06T11:28:11.728Z,20.07
2019-04-06T11:29:11.213Z,20.04
2019-04-06T11:30:15.673Z,20.02
2019-04-06T11:31:11.223Z,20.04
2019-04-06T11:32:11.406Z,20.01
2019-04-06T11:33:11.138Z,20.01
2019-04-06T11:34:11.049Z,20.01
2019-04-06T11:35:11.407Z,20.02
2019-04-06T11:36:11.407Z,19.96
2019-04-06T11:37:11.059Z,19.96
2019-04-06T11:38:11.213Z,19.96
2019-04-06T11:39:11.121Z,19.93
2019-04-06T11:40:11.208Z,19.95
2019-04-06T11:41:11.207Z,19.92
2019-04-06T11:42:11.496Z,19.95
2019-04-06T11:43:11.087Z,19.95
2019-04-06T11:44:11.311Z,19.92
2019-04-06T11:45:11.159Z,19.92
2019-04-06T11:46:11.178Z,19.91
2019-04-06T11:47:11.465Z,19.91
2019-04-06T11:48:11.204Z,19.91
2019-04-06T11:49:11.361Z,19.91
2019-04-06T11:50:11.264Z,19.88
2019-04-06T11:51:11.294Z,19.88
2019-04-06T11:52:11.516Z,19.86
2019-04-06T11:53:11.145Z,19.88
2019-04-06T11:54:11.460Z,19.88
2019-04-06T11:55:11.031Z,19.85
2019-04-06T11:56:11.552Z,19.84
2019-04-06T11:57:11.146Z,19.85
2019-04-06T11:58:11.181Z,19.81
2019-04-06T11:59:11.128Z,19.85
2019-04-06T12:00:28.253Z,19.84
2019-04-06T12:01:11.219Z,19.82
2019-04-06T12:02:11.176Z,19.84
2019-04-06T12:03:11.197Z,19.84
2019-04-06T12:04:11.506Z,19.81
2019-04-06T12:05:11.193Z,19.82
2019-04-06T12:06:11.519Z,19.82
2019-04-06T12:07:11.435Z,19.8
2019-04-06T12:08:11.535Z,19.8
2019-04-06T12:09:11.181Z,19.8
2019-04-06T12:10:11.769Z,19.77
2019-04-06T12:11:11.281Z,19.8
2019-04-06T12:12:11.148Z,19.78
2019-04-06T12:13:11.462Z,19.77
2019-04-06T12:14:11.159Z,19.77
2019-04-06T12:15:11.075Z,19.77
2019-04-06T12:16:11.191Z,19.78
2019-04-06T12:17:11.176Z,19.77
2019-04-06T12:18:11.198Z,19.74
2019-04-06T12:19:11.088Z,19.75
2019-04-06T12:20:11.242Z,19.73
2019-04-06T12:21:11.152Z,19.71
2019-04-06T12:22:11.287Z,19.74
2019-04-06T12:23:11.167Z,19.74
2019-04-06T12:24:11.548Z,19.71
2019-04-06T12:25:11.460Z,19.74
2019-04-06T12:26:11.076Z,19.74
2019-04-06T12:27:11.265Z,19.71
2019-04-06T12:28:11.385Z,19.74
2019-04-06T12:29:11.451Z,19.78
2019-04-06T12:30:10.985Z,19.78
2019-04-06T12:31:11.056Z,19.77
2019-04-06T12:32:11.295Z,19.75
2019-04-06T12:33:11.177Z,19.77
2019-04-06T12:34:11.412Z,19.77
2019-04-06T12:35:11.052Z,19.78
2019-04-06T12:36:11.610Z,19.78
2019-04-06T12:37:11.403Z,19.8
2019-04-06T12:38:11.125Z,19.8
2019-04-06T12:39:11.131Z,19.81
2019-04-06T12:40:11.889Z,19.81
2019-04-06T12:41:11.668Z,19.8
2019-04-06T12:42:11.573Z,19.81
2019-04-06T12:43:12.011Z,19.81
2019-04-06T12:44:11.220Z,19.8
2019-04-06T12:45:11.700Z,19.81
2019-04-06T12:46:11.029Z,19.84
2019-04-06T12:47:12.497Z,19.84
2019-04-06T12:48:11.362Z,19.85
2019-04-06T12:49:11.302Z,19.85
2019-04-06T12:50:11.037Z,19.84
2019-04-06T12:51:11.029Z,19.84
2019-04-06T12:52:11.241Z,19.86
2019-04-06T12:53:11.573Z,19.82
2019-04-06T12:54:10.989Z,19.84
2019-04-06T12:55:11.082Z,19.85